createdAt,value
2018-09-05T00:00:12.089Z,13.6
2018-09-05T00:05:14.627Z,16.299999
2018-09-05T00:10:16.647Z,18.299999
2018-09-05T00:15:18.928Z,19.799999
2018-09-05T00:20:21.334Z,16.4
2018-09-05T00:25:23.658Z,15.9
2018-09-05T00:30:25.818Z,17
2018-09-05T00:35:28.034Z,13.4
2018-09-05T00:40:30.594Z,16.200001
2018-09-05T00:45:32.718Z,14.8
2018-09-05T00:50:35.067Z,21.9
2018-09-05T00:55:37.330Z,25.4
2018-09-05T01:00:39.731Z,29.1
2018-09-05T01:05:42.012Z,19.799999
2018-09-05T01:10:44.182Z,19.9
2018-09-05T01:15:46.434Z,20
2018-09-05T01:20:48.991Z,32.099998
2018-09-05T01:25:51.075Z,22.799999
2018-09-05T01:30:53.703Z,20
2018-09-05T01:35:55.630Z,32.299999
2018-09-05T01:40:57.932Z,27.4
2018-09-05T01:46:00.461Z,32.900002
2018-09-05T01:51:02.838Z,33.099998
2018-09-05T01:56:05.754Z,23
2018-09-05T02:01:07.074Z,37.200001
2018-09-05T02:06:09.420Z,16.700001
2018-09-05T02:11:11.715Z,30.200001
2018-09-05T02:16:14.142Z,20.700001
2018-09-05T02:21:16.407Z,23.299999
2018-09-05T02:26:18.696Z,25.5
2018-09-05T02:31:20.941Z,20.1
2018-09-05T02:36:23.449Z,22.9
2018-09-05T02:41:25.544Z,25
2018-09-05T02:46:27.963Z,26.5
2018-09-05T02:51:30.089Z,22.200001
2018-09-05T02:56:32.308Z,21.299999
2018-09-05T03:01:34.788Z,26.1
2018-09-05T03:06:36.989Z,29.700001
2018-09-05T03:11:39.357Z,28.1
2018-09-05T03:16:41.529Z,23.799999
2018-09-05T03:21:43.847Z,26.9
2018-09-05T03:26:46.242Z,28.1
2018-09-05T03:31:48.456Z,32.599998
2018-09-05T03:36:50.790Z,27.799999
2018-09-05T03:41:52.959Z,24.5
2018-09-05T03:46:55.293Z,32.400002
2018-09-05T03:51:57.739Z,24.1
2018-09-05T03:56:59.848Z,30.299999
2018-09-05T04:02:02.859Z,33.599998
2018-09-05T04:07:04.584Z,32
2018-09-05T04:12:06.840Z,34.799999
2018-09-05T04:17:10.385Z,36.900002
2018-09-05T04:22:11.650Z,44.099998
2018-09-05T04:27:13.704Z,40.900002
2018-09-05T04:32:16.041Z,40.200001
2018-09-05T04:37:18.245Z,33.599998
2018-09-05T04:42:20.740Z,38.799999
2018-09-05T04:47:22.877Z,32.400002
2018-09-05T04:52:25.179Z,37.5
2018-09-05T04:57:27.462Z,37.400002
2018-09-05T05:02:29.819Z,36.5
2018-09-05T05:07:31.994Z,41.599998
2018-09-05T05:12:34.352Z,36.299999
2018-09-05T05:17:36.613Z,36
2018-09-05T05:22:39.133Z,38
2018-09-05T05:27:41.214Z,27.1
2018-09-05T05:32:43.784Z,33.5
2018-09-05T05:37:45.817Z,40.900002
2018-09-05T05:42:48.116Z,32.299999
2018-09-05T05:47:50.398Z,34.200001
2018-09-05T05:52:52.696Z,37.099998
2018-09-05T05:57:55.008Z,33.799999
2018-09-05T06:02:57.402Z,37.5
2018-09-05T06:07:59.692Z,35.299999
2018-09-05T06:13:01.983Z,36.700001
2018-09-05T06:18:04.312Z,37.299999
2018-09-05T06:23:06.549Z,40.200001
2018-09-05T06:28:08.726Z,34.099998
2018-09-05T06:33:10.983Z,28.5
2018-09-05T06:38:13.478Z,34.700001
2018-09-05T06:43:15.627Z,27.6
2018-09-05T06:48:17.963Z,26.9
2018-09-05T06:53:20.258Z,28.6
2018-09-05T06:58:22.797Z,29.4
2018-09-05T07:03:24.806Z,29.5
2018-09-05T07:08:27.115Z,29.299999
2018-09-05T07:13:29.452Z,31.6
2018-09-05T07:18:31.646Z,31.299999
2018-09-05T07:23:34.133Z,26.9
2018-09-05T07:28:36.409Z,26.5
2018-09-05T07:33:38.749Z,23.799999
2018-09-05T07:38:40.937Z,24.9
2018-09-05T07:43:43.317Z,26.9
2018-09-05T07:48:45.506Z,28.200001
2018-09-05T07:53:47.875Z,22.5
2018-09-05T07:58:50.042Z,24.299999
2018-09-05T08:03:52.343Z,25.4
2018-09-05T08:08:54.604Z,18.700001
2018-09-05T08:13:57.011Z,16.5
2018-09-05T08:18:59.245Z,16.299999
2018-09-05T08:24:01.534Z,21.4
2018-09-05T08:29:04.103Z,19.5
2018-09-05T08:34:06.169Z,14.9
2018-09-05T08:39:08.463Z,13.7
2018-09-05T08:44:10.873Z,13.1
2018-09-05T08:49:12.969Z,12.7
2018-09-05T08:54:15.394Z,14.9
2018-09-05T08:59:17.589Z,16.6
2018-09-05T09:04:21.321Z,14.2
2018-09-05T09:09:22.214Z,17.4
2018-09-05T09:14:24.553Z,13.2
2018-09-05T09:19:26.713Z,18
2018-09-05T09:24:29.111Z,17.9
2018-09-05T09:29:31.362Z,17.6
2018-09-05T09:34:33.570Z,18.799999
2018-09-05T09:39:36.053Z,12.5
2018-09-05T09:44:39.738Z,15.5
2018-09-05T09:49:40.549Z,15.6
2018-09-05T09:54:42.904Z,13.1
2018-09-05T09:59:45.200Z,15.7
2018-09-05T10:04:47.479Z,15.2
2018-09-05T10:09:49.890Z,21.200001
2018-09-05T10:14:52.198Z,19.6
2018-09-05T10:19:54.620Z,19.200001
2018-09-05T10:24:56.573Z,19
2018-09-05T10:29:58.872Z,24.6
2018-09-05T10:35:01.264Z,18.5
2018-09-05T10:40:03.612Z,22.700001
2018-09-05T10:45:05.839Z,25.5
2018-09-05T10:50:08.094Z,25.4
2018-09-05T10:55:10.535Z,28.200001
2018-09-05T11:00:12.731Z,20.700001
2018-09-05T11:05:14.997Z,25
2018-09-05T11:10:17.233Z,24.5
2018-09-05T11:15:21.116Z,32
2018-09-05T11:20:21.886Z,19.799999
2018-09-05T11:25:25.467Z,24.5
2018-09-05T11:30:26.812Z,24.299999
2018-09-05T11:35:28.804Z,24.5
2018-09-05T11:40:31.060Z,22.5
2018-09-05T11:45:33.308Z,27
2018-09-05T11:50:35.626Z,26.4
2018-09-05T11:55:37.984Z,22.1
2018-09-05T12:00:40.367Z,24.700001
2018-09-05T12:05:42.443Z,27.6
2018-09-05T12:10:44.769Z,28.700001
2018-09-05T12:15:47.156Z,22.9
2018-09-05T12:20:49.465Z,26.200001
2018-09-05T12:25:51.746Z,24.700001
2018-09-05T12:30:54.630Z,24.5
2018-09-05T12:35:56.297Z,28
2018-09-05T12:40:58.562Z,26.700001
2018-09-05T12:46:00.901Z,27.5
2018-09-05T12:51:04.482Z,25.9
2018-09-05T12:56:06.471Z,29.5
2018-09-05T13:01:08.113Z,33.099998
2018-09-05T13:06:10.064Z,28.700001
2018-09-05T13:11:12.360Z,26.5
2018-09-05T13:16:14.668Z,28.700001
2018-09-05T13:21:17.023Z,25.9
2018-09-05T13:26:19.270Z,29.299999
2018-09-05T13:31:21.458Z,28.299999
2018-09-05T13:36:23.787Z,25
2018-09-05T13:41:26.101Z,28.4
2018-09-05T13:46:28.530Z,28.4
2018-09-05T13:51:30.707Z,27.6
2018-09-05T13:56:34.555Z,25.1
2018-09-05T14:01:35.212Z,27
2018-09-05T14:06:37.638Z,28.700001
2018-09-05T14:11:39.823Z,27.6
2018-09-05T14:16:42.169Z,23.299999
2018-09-05T14:21:44.562Z,24.4
2018-09-05T14:26:46.698Z,28.299999
2018-09-05T14:31:50.586Z,29.299999
2018-09-05T14:36:51.516Z,27.1
2018-09-05T14:41:53.803Z,20.4
2018-09-05T14:46:55.924Z,28.799999
2018-09-05T14:51:58.289Z,26.6
2018-09-05T14:58:13.003Z,22.299999
2018-09-05T15:02:02.879Z,19.6
2018-09-05T15:07:05.146Z,19.4
2018-09-05T15:13:26.758Z,21.6
2018-09-05T15:17:09.824Z,24.1
2018-09-05T15:22:12.006Z,21.5
2018-09-05T15:27:14.236Z,23
2018-09-05T15:32:16.599Z,27.700001
2018-09-05T15:38:03.557Z,25.299999
2018-09-05T15:42:21.186Z,21.5
2018-09-05T15:49:26.315Z,21.700001
2018-09-05T15:52:25.759Z,25.6
2018-09-05T15:57:38.123Z,18.200001
2018-09-05T16:02:34.593Z,28.1
2018-09-05T16:07:42.167Z,21.5
2018-09-05T16:12:34.896Z,23
2018-09-05T16:17:37.260Z,15.4
2018-09-05T16:22:39.542Z,21.700001
2018-09-05T16:27:41.862Z,22.9
2018-09-05T16:32:44.158Z,23.1
2018-09-05T16:37:46.397Z,23.299999
2018-09-05T16:42:48.652Z,16
2018-09-05T16:47:51.021Z,17.6
2018-09-05T16:52:53.233Z,12.4
2018-09-05T16:57:55.589Z,12.2
2018-09-05T17:02:57.904Z,15
2018-09-05T17:08:00.182Z,17.299999
2018-09-05T17:13:02.424Z,18.299999
2018-09-05T17:18:04.689Z,23.5
2018-09-05T17:23:06.986Z,19.799999
2018-09-05T17:28:09.362Z,16.299999
2018-09-05T17:33:11.628Z,9
2018-09-05T17:38:14.040Z,10.9
2018-09-05T17:43:20.392Z,5.2
2018-09-05T17:48:20.367Z,5.9
2018-09-05T17:53:20.773Z,5.2
2018-09-05T17:58:23.118Z,5.6
2018-09-05T18:03:25.512Z,5.5
2018-09-05T18:08:27.624Z,9.8
2018-09-05T18:13:30.052Z,9.9
2018-09-05T18:18:32.309Z,11.5
2018-09-05T18:23:34.611Z,12.8
2018-09-05T18:28:36.885Z,12.6
2018-09-05T18:33:39.342Z,15.8
2018-09-05T18:38:41.401Z,12
2018-09-05T18:43:43.790Z,14.6
2018-09-05T18:48:46.139Z,11.2
2018-09-05T18:53:48.447Z,12
2018-09-05T18:58:50.674Z,11.5
2018-09-05T19:03:52.961Z,9.8
2018-09-05T19:08:55.270Z,14.5
2018-09-05T19:13:57.632Z,13.9
2018-09-05T19:18:59.878Z,14.5
2018-09-05T19:24:02.162Z,15.1
2018-09-05T19:29:04.535Z,13.9
2018-09-05T19:34:06.631Z,15
2018-09-05T19:39:09.056Z,18.9
2018-09-05T19:44:11.247Z,10.7
2018-09-05T19:49:13.693Z,8.5
2018-09-05T19:54:15.932Z,8.6
2018-09-05T19:59:18.228Z,7.5
2018-09-05T20:04:20.641Z,7.6
2018-09-05T20:09:22.833Z,8.9
2018-09-05T20:14:25.192Z,8.7
2018-09-05T20:19:27.496Z,7.9
2018-09-05T20:24:29.688Z,9.2
2018-09-05T20:29:32.067Z,16.299999
2018-09-05T20:34:34.195Z,18.700001
2018-09-05T20:39:36.551Z,16.6
2018-09-05T20:44:38.881Z,19.700001
2018-09-05T20:49:41.147Z,16.9
2018-09-05T20:54:44.724Z,12.1
2018-09-05T20:59:46.743Z,16.4
2018-09-05T21:04:48.003Z,15.7
2018-09-05T21:09:50.330Z,16.5
2018-09-05T21:14:52.653Z,19.1
2018-09-05T21:19:54.886Z,17.299999
2018-09-05T21:24:57.294Z,15.5
2018-09-05T21:29:59.431Z,14.7
2018-09-05T21:35:01.869Z,12.6
2018-09-05T21:40:04.504Z,17.299999
2018-09-05T21:45:06.455Z,17.5
2018-09-05T21:50:08.714Z,22.9
2018-09-05T21:55:10.997Z,22.9
2018-09-05T22:00:13.331Z,34.799999
2018-09-05T22:05:15.564Z,21.6
2018-09-05T22:10:17.842Z,27.700001
2018-09-05T22:15:24.362Z,20.700001
2018-09-05T22:20:22.508Z,28.4
2018-09-05T22:25:24.779Z,25
2018-09-05T22:30:27.084Z,25.299999
2018-09-05T22:35:29.257Z,26.299999
2018-09-05T22:40:31.636Z,26.299999
2018-09-05T22:45:33.890Z,18.5
2018-09-05T22:50:36.241Z,22.4
2018-09-05T22:55:38.522Z,19.799999
2018-09-05T23:00:40.783Z,19.5
2018-09-05T23:05:43.066Z,24.299999
2018-09-05T23:10:45.429Z,23.200001
2018-09-05T23:15:47.750Z,20.700001
2018-09-05T23:20:49.976Z,22.799999
2018-09-05T23:25:52.375Z,21.1
2018-09-05T23:30:54.683Z,21.1
2018-09-05T23:35:56.919Z,24
2018-09-05T23:40:59.202Z,25.4
2018-09-05T23:46:01.459Z,21.700001
2018-09-05T23:51:03.778Z,21.799999
2018-09-05T23:56:06.060Z,24.6
